createdAt,value
2023-03-04T00:02:17.241Z,96.07
2023-03-04T00:04:48.910Z,78.82
2023-03-04T00:07:20.677Z,67.43
2023-03-04T00:09:52.215Z,61.20
2023-03-04T00:12:23.719Z,54.25
2023-03-04T00:14:55.327Z,54.90
2023-03-04T00:17:26.892Z,60.42
2023-03-04T00:19:59.986Z,56.22
2023-03-04T00:22:31.491Z,57.72
2023-03-04T00:25:03.022Z,51.58
2023-03-04T00:27:34.814Z,64.93
2023-03-04T00:30:07.616Z,61.65
2023-03-04T00:32:39.418Z,54.67
2023-03-04T00:35:11.005Z,50.58
2023-03-04T00:37:42.658Z,58.67
2023-03-04T00:40:14.361Z,53.65
2023-03-04T00:42:45.956Z,56.33
2023-03-04T00:45:17.483Z,53.20
2023-03-04T00:47:49.127Z,53.73
2023-03-04T00:50:20.979Z,51.63
2023-03-04T00:52:52.551Z,63.40
2023-03-04T00:55:24.054Z,53.97
2023-03-04T00:57:55.630Z,52.80
2023-03-04T01:00:27.237Z,59.70
2023-03-04T01:02:58.861Z,52.10
2023-03-04T01:05:30.343Z,57.85
2023-03-04T01:08:02.904Z,55.13
2023-03-04T01:10:34.461Z,43.22
2023-03-04T01:13:06.280Z,49.88
2023-03-04T01:15:37.780Z,45.60
2023-03-04T01:18:09.625Z,52.40
2023-03-04T01:20:41.165Z,50.75
2023-03-04T01:23:12.863Z,53.67
2023-03-04T01:25:44.326Z,50.15
2023-03-04T01:28:15.924Z,59.30
2023-03-04T01:30:47.684Z,46.25
2023-03-04T01:33:19.345Z,47.50
2023-03-04T01:35:50.924Z,48.90
2023-03-04T01:38:22.637Z,49.03
2023-03-04T01:40:54.457Z,43.75
2023-03-04T01:43:28.801Z,45.03
2023-03-04T01:46:00.476Z,45.28
2023-03-04T01:48:37.013Z,44.70
2023-03-04T01:51:14.306Z,44.65
2023-03-04T01:53:53.416Z,47.17
2023-03-04T01:56:29.537Z,43.42
2023-03-04T01:59:08.005Z,43.85
2023-03-04T02:01:41.123Z,41.67
2023-03-04T02:04:13.974Z,42.72
2023-03-04T02:06:46.857Z,47.22
2023-03-04T02:09:19.350Z,48.35
2023-03-04T02:11:52.016Z,43.92
2023-03-04T02:14:23.707Z,44.28
2023-03-04T02:16:55.259Z,44.20
2023-03-04T02:19:36.966Z,48.40
2023-03-04T02:22:08.638Z,45.97
2023-03-04T02:24:50.585Z,48.28
2023-03-04T02:27:22.297Z,47.72
2023-03-04T02:29:53.814Z,53.20
2023-03-04T02:32:25.478Z,48.63
2023-03-04T02:34:57.045Z,46.90
2023-03-04T02:37:28.639Z,49.80
2023-03-04T02:40:00.252Z,50.78
2023-03-04T02:42:31.805Z,42.40
2023-03-04T02:45:05.811Z,42.28
2023-03-04T02:47:37.735Z,51.97
2023-03-04T02:50:10.091Z,40.80
2023-03-04T02:55:12.953Z,37.20
2023-03-04T02:57:46.582Z,42.10
2023-03-04T03:00:18.149Z,41.90
2023-03-04T03:02:49.705Z,45.65
2023-03-04T03:05:21.222Z,46.38
2023-03-04T03:07:52.837Z,44.67
2023-03-04T03:10:25.123Z,53.17
2023-03-04T03:12:56.688Z,44.42
2023-03-04T03:15:28.361Z,51.45
2023-03-04T03:17:59.916Z,46.72
2023-03-04T03:20:31.693Z,50.33
2023-03-04T03:23:04.396Z,52.13
2023-03-04T03:25:35.990Z,51.97
2023-03-04T03:28:07.573Z,53.47
2023-03-04T03:30:39.215Z,49.50
2023-03-04T03:33:10.737Z,49.97
2023-03-04T03:35:42.245Z,50.23
2023-03-04T03:38:14.811Z,54.57
2023-03-04T03:40:46.847Z,44.53
2023-03-04T03:43:18.415Z,52.13
2023-03-04T03:45:51.873Z,50.22
2023-03-04T03:48:23.724Z,47.85
2023-03-04T03:50:55.246Z,46.50
2023-03-04T03:53:26.723Z,50.03
2023-03-04T03:55:59.057Z,56.23
2023-03-04T03:58:30.531Z,42.60
2023-03-04T04:01:02.067Z,45.90
2023-03-04T04:03:33.615Z,45.80
2023-03-04T04:06:05.516Z,45.75
2023-03-04T04:08:37.062Z,52.20
2023-03-04T04:11:10.585Z,47.80
2023-03-04T04:13:42.148Z,44.75
2023-03-04T04:16:13.877Z,42.63
2023-03-04T04:18:45.506Z,44.03
2023-03-04T04:21:17.298Z,39.47
2023-03-04T04:23:48.912Z,48.47
2023-03-04T04:26:20.483Z,45.30
2023-03-04T04:28:52.063Z,42.92
2023-03-04T04:31:23.729Z,40.72
2023-03-04T04:33:55.230Z,40.42
2023-03-04T04:36:27.334Z,42.57
2023-03-04T04:38:58.998Z,37.72
2023-03-04T04:41:36.677Z,40.72
2023-03-04T04:44:10.179Z,43.42
2023-03-04T04:46:42.637Z,47.15
2023-03-04T04:49:14.508Z,52.05
2023-03-04T04:51:46.404Z,44.22
2023-03-04T04:54:17.904Z,46.55
2023-03-04T04:56:49.438Z,42.00
2023-03-04T04:59:21.365Z,44.03
2023-03-04T05:01:52.857Z,48.63
2023-03-04T05:04:24.419Z,47.10
2023-03-04T05:06:55.901Z,47.33
2023-03-04T05:09:27.367Z,47.23
2023-03-04T05:11:59.094Z,50.17
2023-03-04T05:14:30.626Z,50.15
2023-03-04T05:17:02.128Z,50.53
2023-03-04T05:19:34.592Z,45.33
2023-03-04T05:24:37.635Z,44.00
2023-03-04T05:27:09.149Z,54.90
2023-03-04T05:29:40.618Z,46.40
2023-03-04T05:32:12.487Z,48.60
2023-03-04T05:34:44.064Z,46.70
2023-03-04T05:37:15.576Z,47.47
2023-03-04T05:39:47.004Z,46.03
2023-03-04T05:42:18.552Z,46.03
2023-03-04T05:44:50.042Z,45.67
2023-03-04T05:47:21.505Z,51.40
2023-03-04T05:49:53.047Z,44.57
2023-03-04T05:52:24.635Z,46.40
2023-03-04T05:54:56.174Z,45.75
2023-03-04T05:57:27.688Z,50.93
2023-03-04T05:59:59.166Z,49.40
2023-03-04T06:02:30.744Z,50.10
2023-03-04T06:05:03.113Z,51.70
2023-03-04T06:10:07.748Z,52.23
2023-03-04T06:12:40.717Z,49.90
2023-03-04T06:15:14.102Z,50.40
2023-03-04T06:17:46.713Z,49.15
2023-03-04T06:20:18.490Z,47.13
2023-03-04T06:22:50.409Z,43.65
2023-03-04T06:25:22.169Z,48.50
2023-03-04T06:27:55.325Z,54.47
2023-03-04T06:30:27.363Z,47.47
2023-03-04T06:32:59.281Z,45.40
2023-03-04T06:35:32.215Z,49.38
2023-03-04T06:38:03.861Z,47.90
2023-03-04T06:40:35.730Z,51.97
2023-03-04T06:43:07.593Z,53.75
2023-03-04T06:45:39.422Z,53.78
2023-03-04T06:48:12.009Z,47.10
2023-03-04T06:50:43.649Z,51.78
2023-03-04T06:53:15.421Z,52.28
2023-03-04T06:55:48.043Z,42.88
2023-03-04T06:58:19.605Z,50.53
2023-03-04T07:00:51.460Z,47.15
2023-03-04T07:03:23.606Z,51.63
2023-03-04T07:05:55.198Z,45.38
2023-03-04T07:08:27.097Z,48.38
2023-03-04T07:10:58.612Z,48.03
2023-03-04T07:13:30.183Z,48.30
2023-03-04T07:16:01.943Z,48.28
2023-03-04T07:18:34.458Z,49.85
2023-03-04T07:21:07.297Z,56.60
2023-03-04T07:23:39.352Z,52.95
2023-03-04T07:26:11.177Z,46.60
2023-03-04T07:28:43.533Z,53.67
2023-03-04T07:34:00.281Z,51.75
2023-03-04T07:36:39.099Z,53.03
2023-03-04T07:39:13.405Z,49.00
2023-03-04T07:41:44.912Z,49.58
2023-03-04T07:44:16.458Z,49.50
2023-03-04T07:46:47.950Z,53.37
2023-03-04T07:49:19.497Z,47.73
2023-03-04T07:51:51.019Z,53.63
2023-03-04T07:54:22.709Z,54.87
2023-03-04T07:56:54.417Z,52.00
2023-03-04T07:59:25.949Z,53.28
2023-03-04T08:01:57.453Z,52.07
2023-03-04T08:04:29.004Z,53.03
2023-03-04T08:07:00.545Z,50.78
2023-03-04T08:09:32.091Z,48.83
2023-03-04T08:12:03.826Z,56.13
2023-03-04T08:14:35.652Z,49.65
2023-03-04T08:17:07.370Z,54.50
2023-03-04T08:19:38.932Z,53.80
2023-03-04T08:22:10.569Z,47.40
2023-03-04T08:24:42.079Z,56.53
2023-03-04T08:27:13.639Z,55.55
2023-03-04T08:29:45.103Z,52.97
2023-03-04T08:32:16.811Z,52.00
2023-03-04T08:34:48.417Z,55.13
2023-03-04T08:37:19.884Z,54.47
2023-03-04T08:39:51.497Z,56.45
2023-03-04T08:42:24.138Z,55.28
2023-03-04T08:44:55.667Z,49.15
2023-03-04T08:47:27.100Z,50.70
2023-03-04T08:49:58.651Z,46.85
2023-03-04T08:52:30.786Z,45.58
2023-03-04T08:55:02.706Z,52.92
2023-03-04T08:57:34.184Z,48.55
2023-03-04T09:00:06.403Z,48.67
2023-03-04T09:02:37.931Z,49.15
2023-03-04T09:05:09.772Z,49.20
2023-03-04T09:07:41.284Z,45.35
2023-03-04T09:10:13.268Z,44.07
2023-03-04T09:12:44.886Z,57.65
2023-03-04T09:15:16.554Z,54.45
2023-03-04T09:17:48.089Z,57.47
2023-03-04T09:20:23.277Z,46.37
2023-03-04T09:22:54.910Z,46.00
2023-03-04T09:25:26.427Z,46.03
2023-03-04T09:27:58.142Z,46.07
2023-03-04T09:30:30.400Z,42.10
2023-03-04T09:33:02.062Z,46.28
2023-03-04T09:35:33.761Z,36.40
2023-03-04T09:38:06.117Z,45.72
2023-03-04T09:43:33.739Z,36.15
2023-03-04T09:46:11.512Z,42.03
2023-03-04T09:48:50.801Z,46.28
2023-03-04T09:51:25.506Z,46.25
2023-03-04T09:54:27.258Z,39.58
2023-03-04T09:57:17.244Z,45.53
2023-03-04T10:00:00.903Z,43.42
2023-03-04T10:02:41.063Z,41.15
2023-03-04T10:05:20.774Z,43.22
2023-03-04T10:08:05.451Z,45.90
2023-03-04T10:10:44.163Z,39.88
2023-03-04T10:13:23.366Z,41.10
2023-03-04T10:15:57.032Z,39.35
2023-03-04T10:18:43.850Z,42.22
2023-03-04T10:21:32.360Z,45.28
2023-03-04T10:24:13.567Z,38.47
2023-03-04T10:26:49.422Z,37.67
2023-03-04T10:29:24.353Z,40.33
2023-03-04T10:31:56.523Z,35.22
2023-03-04T10:34:28.217Z,37.55
2023-03-04T10:37:05.619Z,37.83
2023-03-04T10:39:55.202Z,31.10
2023-03-04T10:42:30.266Z,36.33
2023-03-04T10:45:01.820Z,34.97
2023-03-04T10:47:34.613Z,36.67
2023-03-04T10:50:06.762Z,38.92
2023-03-04T10:52:38.217Z,34.30
2023-03-04T10:55:41.868Z,34.73
2023-03-04T10:58:18.799Z,33.97
2023-03-04T11:01:03.767Z,36.05
2023-03-04T11:03:37.270Z,32.75
2023-03-04T11:06:21.100Z,34.80
2023-03-04T11:09:01.079Z,35.60
2023-03-04T11:11:44.767Z,32.53
2023-03-04T11:14:30.394Z,38.65
2023-03-04T11:17:45.606Z,37.58
2023-03-04T11:20:33.900Z,35.88
2023-03-04T11:23:20.016Z,37.25
2023-03-04T11:26:13.539Z,43.90
2023-03-04T11:28:58.319Z,35.75
2023-03-04T11:31:48.946Z,36.97
2023-03-04T11:34:26.755Z,38.92
2023-03-04T11:37:08.282Z,40.63
2023-03-04T11:39:46.305Z,41.88
2023-03-04T11:42:25.076Z,38.78
2023-03-04T11:44:56.991Z,41.97
2023-03-04T11:47:56.836Z,39.88
2023-03-04T11:50:57.100Z,39.28
2023-03-04T11:54:11.580Z,33.83
2023-03-04T11:56:52.201Z,35.35
2023-03-04T12:00:00.865Z,34.80
2023-03-04T12:02:41.377Z,35.67
2023-03-04T12:05:38.723Z,33.42
2023-03-04T12:08:26.535Z,36.28
2023-03-04T12:11:08.129Z,36.83
2023-03-04T12:14:21.544Z,33.27
2023-03-04T12:17:14.831Z,29.33
2023-03-04T12:20:01.892Z,36.47
2023-03-04T12:22:48.455Z,35.50
2023-03-04T12:25:44.406Z,33.25
2023-03-04T12:28:52.192Z,30.15
2023-03-04T12:31:34.930Z,29.25
2023-03-04T12:34:43.554Z,32.47
2023-03-04T12:37:30.340Z,28.88
2023-03-04T12:40:23.328Z,35.78
2023-03-04T12:43:22.090Z,33.83
2023-03-04T12:46:11.742Z,32.65
2023-03-04T12:48:56.839Z,30.83
2023-03-04T12:51:40.863Z,27.20
2023-03-04T12:54:26.000Z,28.90
2023-03-04T12:57:03.479Z,29.92
2023-03-04T12:59:59.254Z,32.25
2023-03-04T13:02:42.731Z,28.77
2023-03-04T13:05:24.475Z,30.08
2023-03-04T13:07:59.686Z,34.40
2023-03-04T13:10:31.613Z,29.13
2023-03-04T13:13:04.211Z,30.40
2023-03-04T13:15:38.276Z,28.38
2023-03-04T13:18:31.375Z,30.75
2023-03-04T13:21:07.793Z,29.85
2023-03-04T13:23:39.886Z,29.58
2023-03-04T13:26:18.277Z,25.27
2023-03-04T13:28:55.281Z,31.65
2023-03-04T13:31:27.091Z,24.85
2023-03-04T13:34:00.290Z,27.70
2023-03-04T13:36:54.895Z,27.27
2023-03-04T13:39:28.561Z,26.38
2023-03-04T13:42:00.972Z,25.17
2023-03-04T13:44:56.875Z,27.98
2023-03-04T13:47:48.893Z,26.13
2023-03-04T13:50:34.069Z,31.20
2023-03-04T13:53:30.613Z,27.63
2023-03-04T13:56:07.061Z,26.48
2023-03-04T13:58:39.635Z,23.23
2023-03-04T14:01:25.444Z,31.50
2023-03-04T14:03:57.446Z,22.08
2023-03-04T14:06:31.300Z,25.30
2023-03-04T14:09:16.552Z,23.98
2023-03-04T14:11:49.847Z,27.70
2023-03-04T14:14:24.550Z,24.90
2023-03-04T14:17:02.777Z,25.63
2023-03-04T14:19:43.060Z,29.63
2023-03-04T14:22:20.464Z,25.35
2023-03-04T14:25:19.955Z,22.98
2023-03-04T14:28:05.599Z,25.77
2023-03-04T14:30:43.601Z,25.73
2023-03-04T14:33:19.568Z,31.20
2023-03-04T14:35:53.577Z,24.98
2023-03-04T14:38:31.198Z,24.17
2023-03-04T14:41:10.728Z,23.55
2023-03-04T14:44:04.075Z,24.35
2023-03-04T14:47:00.553Z,22.45
2023-03-04T14:49:39.475Z,24.70
2023-03-04T14:52:40.107Z,20.83
2023-03-04T14:55:14.860Z,22.42
2023-03-04T14:58:08.194Z,18.05
2023-03-04T15:00:43.190Z,22.75
2023-03-04T15:03:19.319Z,21.35
2023-03-04T15:05:55.074Z,17.77
2023-03-04T15:08:35.664Z,17.42
2023-03-04T15:11:08.417Z,20.40
2023-03-04T15:13:41.562Z,21.45
2023-03-04T15:16:14.892Z,20.23
2023-03-04T15:18:55.314Z,19.38
2023-03-04T15:21:31.722Z,23.13
2023-03-04T15:24:04.741Z,19.10
2023-03-04T15:26:41.013Z,18.63
2023-03-04T15:29:18.064Z,18.98
2023-03-04T15:31:49.635Z,21.00
2023-03-04T15:34:21.316Z,20.83
2023-03-04T15:36:53.857Z,26.90
2023-03-04T15:39:27.567Z,19.75
2023-03-04T15:42:03.532Z,20.50
2023-03-04T15:44:35.078Z,18.60
2023-03-04T15:47:08.811Z,17.10
2023-03-04T15:49:42.496Z,21.10
2023-03-04T15:52:17.892Z,18.35
2023-03-04T15:54:49.671Z,19.63
2023-03-04T15:57:24.583Z,19.98
2023-03-04T15:59:56.118Z,21.73
2023-03-04T16:02:27.721Z,20.40
2023-03-04T16:04:59.565Z,22.17
2023-03-04T16:07:31.253Z,30.83
2023-03-04T16:10:08.898Z,22.05
2023-03-04T16:12:40.494Z,22.95
2023-03-04T16:15:18.761Z,22.38
2023-03-04T16:17:50.892Z,20.90
2023-03-04T16:20:27.464Z,19.70
2023-03-04T16:23:00.857Z,21.67
2023-03-04T16:25:32.449Z,20.88
2023-03-04T16:28:04.186Z,17.45
2023-03-04T16:30:35.759Z,29.02
2023-03-04T16:33:07.320Z,23.50
2023-03-04T16:35:39.523Z,23.63
2023-03-04T16:38:21.152Z,23.65
2023-03-04T16:40:53.027Z,19.35
2023-03-04T16:43:24.916Z,22.42
2023-03-04T16:45:56.459Z,21.60
2023-03-04T16:48:27.971Z,22.33
2023-03-04T16:50:59.553Z,19.83
2023-03-04T16:53:37.139Z,20.83
2023-03-04T16:56:17.046Z,22.45
2023-03-04T16:58:49.234Z,23.10
2023-03-04T17:01:23.088Z,22.17
2023-03-04T17:03:55.643Z,19.17
2023-03-04T17:06:28.154Z,18.48
2023-03-04T17:09:02.213Z,19.85
2023-03-04T17:11:34.125Z,20.92
2023-03-04T17:14:05.627Z,21.08
2023-03-04T17:16:37.266Z,18.70
2023-03-04T17:19:08.824Z,23.08
2023-03-04T17:21:40.656Z,22.80
2023-03-04T17:24:12.232Z,23.90
2023-03-04T17:26:43.798Z,20.33
2023-03-04T17:29:15.618Z,27.38
2023-03-04T17:31:47.197Z,23.55
2023-03-04T17:34:19.047Z,22.23
2023-03-04T17:36:50.657Z,21.42
2023-03-04T17:39:22.165Z,24.27
2023-03-04T17:41:53.683Z,22.17
2023-03-04T17:44:25.242Z,21.97
2023-03-04T17:46:57.614Z,23.77
2023-03-04T17:52:02.901Z,20.05
2023-03-04T17:54:36.058Z,27.08
2023-03-04T17:57:10.047Z,23.70
2023-03-04T17:59:41.648Z,22.65
2023-03-04T18:02:16.440Z,22.50
2023-03-04T18:04:50.109Z,26.42
2023-03-04T18:07:21.693Z,21.17
2023-03-04T18:09:53.187Z,27.08
2023-03-04T18:12:24.793Z,25.80
2023-03-04T18:14:56.368Z,25.57
2023-03-04T18:17:27.940Z,26.35
2023-03-04T18:19:59.462Z,29.35
2023-03-04T18:22:31.343Z,30.03
2023-03-04T18:25:03.030Z,26.40
2023-03-04T18:27:34.563Z,28.10
2023-03-04T18:30:10.809Z,29.83
2023-03-04T18:32:51.895Z,26.00
2023-03-04T18:35:24.034Z,26.00
2023-03-04T18:37:55.550Z,24.40
2023-03-04T18:40:30.919Z,28.07
2023-03-04T18:43:04.827Z,24.92
2023-03-04T18:45:36.384Z,26.85
2023-03-04T18:48:08.379Z,29.08
2023-03-04T18:50:39.905Z,25.90
2023-03-04T18:53:11.636Z,27.73
2023-03-04T18:55:43.216Z,25.48
2023-03-04T18:58:14.723Z,26.93
2023-03-04T19:00:46.567Z,27.60
2023-03-04T19:03:18.134Z,25.73
2023-03-04T19:05:49.680Z,20.90
2023-03-04T19:08:21.218Z,27.90
2023-03-04T19:10:52.845Z,30.10
2023-03-04T19:13:24.852Z,28.92
2023-03-04T19:15:56.357Z,22.98
2023-03-04T19:18:29.125Z,24.77
2023-03-04T19:21:00.793Z,31.90
2023-03-04T19:23:32.398Z,24.48
2023-03-04T19:26:06.897Z,24.42
2023-03-04T19:28:38.407Z,29.48
2023-03-04T19:31:11.119Z,27.87
2023-03-04T19:33:43.022Z,20.08
2023-03-04T19:36:14.562Z,21.50
2023-03-04T19:38:46.936Z,20.07
2023-03-04T19:41:18.663Z,25.33
2023-03-04T19:43:50.691Z,25.73
2023-03-04T19:46:22.308Z,23.20
2023-03-04T19:48:53.961Z,23.02
2023-03-04T19:51:28.028Z,21.75
2023-03-04T19:54:00.772Z,25.10
2023-03-04T19:56:32.240Z,21.73
2023-03-04T19:59:04.882Z,25.63
2023-03-04T20:01:37.603Z,28.30
2023-03-04T20:04:15.433Z,30.65
2023-03-04T20:06:49.202Z,26.13
2023-03-04T20:09:20.814Z,30.55
2023-03-04T20:11:58.774Z,27.88
2023-03-04T20:14:32.717Z,20.52
2023-03-04T20:17:07.035Z,24.75
2023-03-04T20:19:38.813Z,27.92
2023-03-04T20:22:11.113Z,27.63
2023-03-04T20:24:42.971Z,28.23
2023-03-04T20:27:15.512Z,24.80
2023-03-04T20:32:21.377Z,27.20
2023-03-04T20:34:57.001Z,28.17
2023-03-04T20:37:28.722Z,26.55
2023-03-04T20:40:00.314Z,28.38
2023-03-04T20:42:32.249Z,34.22
2023-03-04T20:45:04.926Z,28.55
2023-03-04T20:47:39.631Z,30.23
2023-03-04T20:50:12.792Z,30.83
2023-03-04T20:52:46.003Z,28.90
2023-03-04T20:55:17.963Z,24.98
2023-03-04T20:57:49.507Z,27.70
2023-03-04T21:00:21.391Z,30.98
2023-03-04T21:02:52.885Z,32.38
2023-03-04T21:05:24.346Z,28.87
2023-03-04T21:07:55.993Z,24.25
2023-03-04T21:10:28.015Z,32.35
2023-03-04T21:12:59.582Z,31.67
2023-03-04T21:15:31.542Z,24.17
2023-03-04T21:18:03.304Z,33.30
2023-03-04T21:20:34.860Z,29.13
2023-03-04T21:23:06.591Z,29.30
2023-03-04T21:25:38.083Z,32.38
2023-03-04T21:28:09.503Z,30.43
2023-03-04T21:30:41.606Z,40.08
2023-03-04T21:33:18.745Z,35.15
2023-03-04T21:35:50.455Z,30.52
2023-03-04T21:38:21.968Z,31.48
2023-03-04T21:40:53.531Z,35.10
2023-03-04T21:43:25.023Z,34.63
2023-03-04T21:45:58.563Z,32.33
2023-03-04T21:48:30.071Z,29.38
2023-03-04T21:51:07.162Z,32.73
2023-03-04T21:53:39.543Z,32.22
2023-03-04T21:58:43.231Z,29.85
2023-03-04T22:01:21.367Z,33.90
2023-03-04T22:03:53.606Z,27.40
2023-03-04T22:06:26.656Z,31.65
2023-03-04T22:08:58.517Z,35.20
2023-03-04T22:11:30.724Z,30.90
2023-03-04T22:14:03.188Z,35.75
2023-03-04T22:16:39.841Z,36.03
2023-03-04T22:19:17.090Z,28.83
2023-03-04T22:21:48.652Z,37.50
2023-03-04T22:24:20.918Z,31.20
2023-03-04T22:26:52.452Z,29.83
2023-03-04T22:29:24.146Z,30.80
2023-03-04T22:31:55.803Z,32.08
2023-03-04T22:34:27.438Z,32.38
2023-03-04T22:36:59.071Z,28.42
2023-03-04T22:39:30.637Z,35.20
2023-03-04T22:42:02.225Z,36.40
2023-03-04T22:44:34.579Z,33.05
2023-03-04T22:49:39.646Z,29.77
2023-03-04T22:52:11.143Z,27.20
2023-03-04T22:54:42.673Z,28.57
2023-03-04T22:57:14.176Z,28.42
2023-03-04T22:59:45.652Z,32.47
2023-03-04T23:02:17.481Z,33.03
2023-03-04T23:04:49.003Z,37.47
2023-03-04T23:07:20.516Z,30.10
2023-03-04T23:09:51.967Z,35.00
2023-03-04T23:12:23.620Z,34.97
2023-03-04T23:14:55.183Z,37.63
2023-03-04T23:17:26.882Z,32.50
2023-03-04T23:19:58.371Z,36.53
2023-03-04T23:22:30.412Z,36.67
2023-03-04T23:25:01.860Z,36.35
2023-03-04T23:27:33.406Z,33.50
2023-03-04T23:30:07.512Z,34.80
2023-03-04T23:32:39.051Z,37.35
2023-03-04T23:35:11.037Z,34.35
2023-03-04T23:37:42.617Z,35.28
2023-03-04T23:40:14.144Z,35.72
2023-03-04T23:42:45.841Z,33.67
2023-03-04T23:45:17.497Z,30.10
2023-03-04T23:47:49.075Z,36.17
2023-03-04T23:50:20.654Z,37.25
2023-03-04T23:52:52.285Z,33.70
2023-03-04T23:55:23.833Z,35.08
2023-03-04T23:57:55.358Z,29.83
